sensor_id;sensor_type;location;lat;lon;timestamp;P1;durP1;ratioP1;P2;durP2;ratioP2
58697;SDS011;44475;53.206;-6.106;2022-10-16T00:00:40;2.65;;;1.13;;
58697;SDS011;44475;53.206;-6.106;2022-10-16T00:03:07;3.25;;;1.10;;
58697;SDS011;44475;53.206;-6.106;2022-10-16T00:05:37;2.45;;;1.20;;
58697;SDS011;44475;53.206;-6.106;2022-10-16T00:08:06;1.20;;;1.10;;
58697;SDS011;44475;53.206;-6.106;2022-10-16T00:10:33;2.20;;;1.20;;
58697;SDS011;44475;53.206;-6.106;2022-10-16T00:12:59;1.17;;;1.00;;
58697;SDS011;44475;53.206;-6.106;2022-10-16T00:15:26;1.17;;;1.05;;
58697;SDS011;44475;53.206;-6.106;2022-10-16T00:17:52;1.65;;;1.10;;
58697;SDS011;44475;53.206;-6.106;2022-10-16T00:20:18;2.28;;;1.15;;
58697;SDS011;44475;53.206;-6.106;2022-10-16T00:22:45;2.30;;;1.20;;
58697;SDS011;44475;53.206;-6.106;2022-10-16T00:25:11;2.33;;;1.13;;
58697;SDS011;44475;53.206;-6.106;2022-10-16T00:27:37;1.75;;;0.95;;
58697;SDS011;44475;53.206;-6.106;2022-10-16T00:30:04;2.42;;;1.10;;
58697;SDS011;44475;53.206;-6.106;2022-10-16T00:32:30;1.98;;;1.10;;
58697;SDS011;44475;53.206;-6.106;2022-10-16T00:34:57;1.10;;;1.00;;
58697;SDS011;44475;53.206;-6.106;2022-10-16T00:37:23;1.55;;;1.00;;
58697;SDS011;44475;53.206;-6.106;2022-10-16T00:39:49;1.58;;;1.00;;
58697;SDS011;44475;53.206;-6.106;2022-10-16T00:42:16;1.60;;;0.95;;
58697;SDS011;44475;53.206;-6.106;2022-10-16T00:47:13;1.25;;;0.98;;
58697;SDS011;44475;53.206;-6.106;2022-10-16T00:50:13;0.90;;;0.90;;
58697;SDS011;44475;53.206;-6.106;2022-10-16T00:53:00;1.42;;;1.00;;
58697;SDS011;44475;53.206;-6.106;2022-10-16T00:55:27;1.15;;;1.00;;
58697;SDS011;44475;53.206;-6.106;2022-10-16T00:57:55;2.65;;;1.00;;
58697;SDS011;44475;53.206;-6.106;2022-10-16T01:00:24;2.13;;;1.10;;
58697;SDS011;44475;53.206;-6.106;2022-10-16T01:02:55;1.92;;;1.00;;
58697;SDS011;44475;53.206;-6.106;2022-10-16T01:05:30;1.25;;;0.98;;
58697;SDS011;44475;53.206;-6.106;2022-10-16T01:08:17;1.98;;;1.05;;
58697;SDS011;44475;53.206;-6.106;2022-10-16T01:10:52;2.13;;;1.00;;
58697;SDS011;44475;53.206;-6.106;2022-10-16T01:13:26;2.63;;;1.00;;
58697;SDS011;44475;53.206;-6.106;2022-10-16T01:21:05;1.73;;;0.90;;
58697;SDS011;44475;53.206;-6.106;2022-10-16T01:31:39;0.80;;;0.80;;
58697;SDS011;44475;53.206;-6.106;2022-10-16T01:34:15;1.17;;;1.00;;
58697;SDS011;44475;53.206;-6.106;2022-10-16T01:37:00;0.88;;;0.88;;
58697;SDS011;44475;53.206;-6.106;2022-10-16T01:39:35;1.42;;;0.90;;
58697;SDS011;44475;53.206;-6.106;2022-10-16T01:42:07;0.90;;;0.85;;
58697;SDS011;44475;53.206;-6.106;2022-10-16T01:44:41;1.35;;;1.00;;
58697;SDS011;44475;53.206;-6.106;2022-10-16T01:47:09;1.13;;;1.05;;
58697;SDS011;44475;53.206;-6.106;2022-10-16T01:49:38;1.42;;;1.00;;
58697;SDS011;44475;53.206;-6.106;2022-10-16T01:52:13;3.05;;;1.00;;
58697;SDS011;44475;53.206;-6.106;2022-10-16T01:54:46;1.77;;;1.00;;
58697;SDS011;44475;53.206;-6.106;2022-10-16T01:57:15;2.33;;;1.20;;
58697;SDS011;44475;53.206;-6.106;2022-10-16T01:59:46;1.85;;;1.05;;
58697;SDS011;44475;53.206;-6.106;2022-10-16T02:02:15;1.30;;;1.10;;
58697;SDS011;44475;53.206;-6.106;2022-10-16T02:04:58;1.27;;;0.80;;
58697;SDS011;44475;53.206;-6.106;2022-10-16T02:07:37;1.15;;;0.95;;
58697;SDS011;44475;53.206;-6.106;2022-10-16T02:10:04;1.08;;;0.93;;
58697;SDS011;44475;53.206;-6.106;2022-10-16T02:12:31;1.63;;;0.98;;
58697;SDS011;44475;53.206;-6.106;2022-10-16T02:15:01;1.52;;;1.10;;
58697;SDS011;44475;53.206;-6.106;2022-10-16T02:17:28;1.58;;;0.95;;
58697;SDS011;44475;53.206;-6.106;2022-10-16T02:19:54;1.15;;;0.90;;
58697;SDS011;44475;53.206;-6.106;2022-10-16T02:22:39;1.00;;;0.90;;
58697;SDS011;44475;53.206;-6.106;2022-10-16T02:25:17;1.45;;;1.05;;
58697;SDS011;44475;53.206;-6.106;2022-10-16T02:30:42;1.95;;;0.98;;
58697;SDS011;44475;53.206;-6.106;2022-10-16T02:33:18;1.05;;;0.95;;
58697;SDS011;44475;53.206;-6.106;2022-10-16T02:35:47;2.33;;;1.20;;
58697;SDS011;44475;53.206;-6.106;2022-10-16T02:38:16;0.93;;;0.80;;
58697;SDS011;44475;53.206;-6.106;2022-10-16T02:40:44;0.93;;;0.90;;
58697;SDS011;44475;53.206;-6.106;2022-10-16T02:43:10;1.58;;;0.90;;
58697;SDS011;44475;53.206;-6.106;2022-10-16T02:45:38;1.50;;;0.90;;
58697;SDS011;44475;53.206;-6.106;2022-10-16T02:48:05;2.08;;;1.05;;
58697;SDS011;44475;53.206;-6.106;2022-10-16T02:50:31;2.00;;;0.95;;
58697;SDS011;44475;53.206;-6.106;2022-10-16T02:52:58;1.10;;;1.00;;
58697;SDS011;44475;53.206;-6.106;2022-10-16T02:55:24;1.60;;;1.10;;
58697;SDS011;44475;53.206;-6.106;2022-10-16T02:57:53;1.55;;;1.02;;
58697;SDS011;44475;53.206;-6.106;2022-10-16T03:00:19;1.83;;;1.00;;
58697;SDS011;44475;53.206;-6.106;2022-10-16T03:05:36;1.50;;;0.90;;
58697;SDS011;44475;53.206;-6.106;2022-10-16T03:08:02;1.27;;;1.00;;
58697;SDS011;44475;53.206;-6.106;2022-10-16T03:10:29;1.38;;;0.90;;
58697;SDS011;44475;53.206;-6.106;2022-10-16T03:12:55;2.67;;;1.00;;
58697;SDS011;44475;53.206;-6.106;2022-10-16T03:15:21;2.08;;;0.90;;
58697;SDS011;44475;53.206;-6.106;2022-10-16T03:17:48;1.75;;;0.98;;
58697;SDS011;44475;53.206;-6.106;2022-10-16T03:20:14;0.70;;;0.70;;
58697;SDS011;44475;53.206;-6.106;2022-10-16T03:22:40;0.82;;;0.82;;
58697;SDS011;44475;53.206;-6.106;2022-10-16T03:25:07;1.33;;;1.05;;
58697;SDS011;44475;53.206;-6.106;2022-10-16T03:27:33;1.38;;;0.95;;
58697;SDS011;44475;53.206;-6.106;2022-10-16T03:29:59;0.80;;;0.75;;
58697;SDS011;44475;53.206;-6.106;2022-10-16T03:32:26;1.10;;;1.00;;
58697;SDS011;44475;53.206;-6.106;2022-10-16T03:34:53;1.75;;;1.00;;
58697;SDS011;44475;53.206;-6.106;2022-10-16T03:37:21;1.42;;;1.20;;
58697;SDS011;44475;53.206;-6.106;2022-10-16T03:39:47;1.23;;;0.90;;
58697;SDS011;44475;53.206;-6.106;2022-10-16T03:42:14;1.45;;;1.00;;
58697;SDS011;44475;53.206;-6.106;2022-10-16T03:44:40;1.02;;;0.80;;
58697;SDS011;44475;53.206;-6.106;2022-10-16T03:47:06;1.33;;;0.90;;
58697;SDS011;44475;53.206;-6.106;2022-10-16T03:49:32;1.00;;;1.00;;
58697;SDS011;44475;53.206;-6.106;2022-10-16T03:51:59;2.67;;;0.95;;
58697;SDS011;44475;53.206;-6.106;2022-10-16T03:54:25;3.58;;;1.10;;
58697;SDS011;44475;53.206;-6.106;2022-10-16T03:56:51;1.45;;;0.98;;
58697;SDS011;44475;53.206;-6.106;2022-10-16T03:59:18;2.05;;;1.10;;
58697;SDS011;44475;53.206;-6.106;2022-10-16T04:01:44;1.42;;;1.02;;
58697;SDS011;44475;53.206;-6.106;2022-10-16T04:04:10;1.63;;;1.00;;
58697;SDS011;44475;53.206;-6.106;2022-10-16T04:06:36;2.58;;;1.38;;
58697;SDS011;44475;53.206;-6.106;2022-10-16T04:09:03;1.33;;;0.82;;
58697;SDS011;44475;53.206;-6.106;2022-10-16T04:11:29;2.38;;;1.13;;
58697;SDS011;44475;53.206;-6.106;2022-10-16T04:13:55;2.88;;;1.08;;
58697;SDS011;44475;53.206;-6.106;2022-10-16T04:16:22;0.90;;;0.85;;
58697;SDS011;44475;53.206;-6.106;2022-10-16T04:18:48;0.82;;;0.82;;
58697;SDS011;44475;53.206;-6.106;2022-10-16T04:21:14;2.83;;;1.00;;
58697;SDS011;44475;53.206;-6.106;2022-10-16T04:23:41;2.20;;;1.10;;
58697;SDS011;44475;53.206;-6.106;2022-10-16T04:26:07;1.25;;;0.95;;
58697;SDS011;44475;53.206;-6.106;2022-10-16T04:28:35;1.73;;;1.10;;
58697;SDS011;44475;53.206;-6.106;2022-10-16T04:31:05;3.40;;;1.20;;
58697;SDS011;44475;53.206;-6.106;2022-10-16T04:33:32;1.10;;;0.98;;
58697;SDS011;44475;53.206;-6.106;2022-10-16T04:35:59;1.42;;;1.00;;
58697;SDS011;44475;53.206;-6.106;2022-10-16T04:38:27;1.30;;;1.08;;
58697;SDS011;44475;53.206;-6.106;2022-10-16T04:40:53;1.27;;;1.00;;
58697;SDS011;44475;53.206;-6.106;2022-10-16T04:43:20;2.67;;;1.45;;
58697;SDS011;44475;53.206;-6.106;2022-10-16T04:45:46;2.45;;;1.20;;
58697;SDS011;44475;53.206;-6.106;2022-10-16T04:48:15;1.55;;;0.90;;
58697;SDS011;44475;53.206;-6.106;2022-10-16T04:50:42;0.90;;;0.90;;
58697;SDS011;44475;53.206;-6.106;2022-10-16T04:53:08;4.03;;;1.00;;
58697;SDS011;44475;53.206;-6.106;2022-10-16T04:55:34;1.77;;;1.00;;
58697;SDS011;44475;53.206;-6.106;2022-10-16T04:58:01;1.35;;;0.85;;
58697;SDS011;44475;53.206;-6.106;2022-10-16T05:00:27;2.53;;;1.25;;
58697;SDS011;44475;53.206;-6.106;2022-10-16T05:02:53;2.25;;;0.98;;
58697;SDS011;44475;53.206;-6.106;2022-10-16T05:05:20;1.00;;;0.70;;
58697;SDS011;44475;53.206;-6.106;2022-10-16T05:07:47;2.92;;;0.98;;
58697;SDS011;44475;53.206;-6.106;2022-10-16T05:10:14;1.80;;;0.90;;
58697;SDS011;44475;53.206;-6.106;2022-10-16T05:12:41;0.70;;;0.70;;
58697;SDS011;44475;53.206;-6.106;2022-10-16T05:15:07;1.55;;;0.90;;
58697;SDS011;44475;53.206;-6.106;2022-10-16T05:17:34;1.25;;;0.90;;
58697;SDS011;44475;53.206;-6.106;2022-10-16T05:20:00;1.52;;;1.00;;
58697;SDS011;44475;53.206;-6.106;2022-10-16T05:22:27;3.08;;;1.10;;
58697;SDS011;44475;53.206;-6.106;2022-10-16T05:24:53;2.33;;;1.10;;
58697;SDS011;44475;53.206;-6.106;2022-10-16T05:27:20;1.20;;;0.90;;
58697;SDS011;44475;53.206;-6.106;2022-10-16T05:29:46;1.98;;;1.05;;
58697;SDS011;44475;53.206;-6.106;2022-10-16T05:32:17;1.17;;;0.98;;
58697;SDS011;44475;53.206;-6.106;2022-10-16T05:34:44;1.10;;;0.90;;
58697;SDS011;44475;53.206;-6.106;2022-10-16T05:37:10;0.95;;;0.88;;
58697;SDS011;44475;53.206;-6.106;2022-10-16T05:39:37;2.35;;;1.00;;
58697;SDS011;44475;53.206;-6.106;2022-10-16T05:42:04;1.50;;;0.90;;
58697;SDS011;44475;53.206;-6.106;2022-10-16T05:44:31;2.72;;;1.00;;
58697;SDS011;44475;53.206;-6.106;2022-10-16T05:46:58;1.27;;;0.95;;
58697;SDS011;44475;53.206;-6.106;2022-10-16T05:49:24;0.80;;;0.80;;
58697;SDS011;44475;53.206;-6.106;2022-10-16T05:51:50;0.85;;;0.85;;
58697;SDS011;44475;53.206;-6.106;2022-10-16T05:54:16;2.53;;;0.90;;
58697;SDS011;44475;53.206;-6.106;2022-10-16T05:56:43;1.15;;;0.88;;
58697;SDS011;44475;53.206;-6.106;2022-10-16T05:59:09;1.27;;;0.90;;
58697;SDS011;44475;53.206;-6.106;2022-10-16T06:01:35;2.25;;;1.00;;
58697;SDS011;44475;53.206;-6.106;2022-10-16T06:04:01;0.90;;;0.90;;
58697;SDS011;44475;53.206;-6.106;2022-10-16T06:06:28;1.90;;;1.00;;
58697;SDS011;44475;53.206;-6.106;2022-10-16T06:08:56;1.52;;;0.90;;
58697;SDS011;44475;53.206;-6.106;2022-10-16T06:11:24;1.23;;;1.00;;
58697;SDS011;44475;53.206;-6.106;2022-10-16T06:13:52;2.00;;;1.00;;
58697;SDS011;44475;53.206;-6.106;2022-10-16T06:16:21;1.65;;;0.90;;
58697;SDS011;44475;53.206;-6.106;2022-10-16T06:18:53;2.00;;;1.05;;
58697;SDS011;44475;53.206;-6.106;2022-10-16T06:21:21;1.67;;;1.00;;
58697;SDS011;44475;53.206;-6.106;2022-10-16T06:23:51;3.88;;;1.10;;
58697;SDS011;44475;53.206;-6.106;2022-10-16T06:26:19;1.55;;;0.88;;
58697;SDS011;44475;53.206;-6.106;2022-10-16T06:28:46;1.25;;;0.90;;
58697;SDS011;44475;53.206;-6.106;2022-10-16T06:31:13;2.72;;;1.13;;
58697;SDS011;44475;53.206;-6.106;2022-10-16T06:33:40;1.05;;;0.93;;
58697;SDS011;44475;53.206;-6.106;2022-10-16T06:36:11;1.23;;;1.00;;
58697;SDS011;44475;53.206;-6.106;2022-10-16T06:38:39;2.70;;;1.15;;
58697;SDS011;44475;53.206;-6.106;2022-10-16T06:41:07;1.13;;;1.00;;
58697;SDS011;44475;53.206;-6.106;2022-10-16T06:43:36;1.05;;;0.80;;
58697;SDS011;44475;53.206;-6.106;2022-10-16T06:46:03;3.33;;;1.00;;
58697;SDS011;44475;53.206;-6.106;2022-10-16T06:48:33;1.77;;;0.93;;
58697;SDS011;44475;53.206;-6.106;2022-10-16T06:51:01;0.68;;;0.68;;
58697;SDS011;44475;53.206;-6.106;2022-10-16T06:53:30;1.58;;;1.08;;
58697;SDS011;44475;53.206;-6.106;2022-10-16T06:56:01;1.13;;;0.90;;
58697;SDS011;44475;53.206;-6.106;2022-10-16T06:58:39;1.00;;;0.90;;
58697;SDS011;44475;53.206;-6.106;2022-10-16T07:01:07;1.15;;;0.90;;
58697;SDS011;44475;53.206;-6.106;2022-10-16T07:03:35;1.65;;;1.15;;
58697;SDS011;44475;53.206;-6.106;2022-10-16T07:06:03;1.65;;;0.90;;
58697;SDS011;44475;53.206;-6.106;2022-10-16T07:08:32;1.30;;;1.02;;
58697;SDS011;44475;53.206;-6.106;2022-10-16T07:10:59;0.98;;;0.85;;
58697;SDS011;44475;53.206;-6.106;2022-10-16T07:13:34;2.47;;;1.13;;
58697;SDS011;44475;53.206;-6.106;2022-10-16T07:16:14;2.67;;;1.02;;
58697;SDS011;44475;53.206;-6.106;2022-10-16T07:18:43;1.52;;;0.90;;
58697;SDS011;44475;53.206;-6.106;2022-10-16T07:21:18;1.67;;;0.90;;
58697;SDS011;44475;53.206;-6.106;2022-10-16T07:23:45;1.58;;;0.80;;
58697;SDS011;44475;53.206;-6.106;2022-10-16T07:26:16;0.98;;;0.90;;
58697;SDS011;44475;53.206;-6.106;2022-10-16T07:28:42;2.10;;;1.02;;
58697;SDS011;44475;53.206;-6.106;2022-10-16T07:31:10;2.00;;;1.13;;
58697;SDS011;44475;53.206;-6.106;2022-10-16T07:33:40;1.85;;;1.00;;
58697;SDS011;44475;53.206;-6.106;2022-10-16T07:36:08;1.15;;;1.05;;
58697;SDS011;44475;53.206;-6.106;2022-10-16T07:38:35;1.88;;;1.10;;
58697;SDS011;44475;53.206;-6.106;2022-10-16T07:41:05;1.65;;;1.13;;
58697;SDS011;44475;53.206;-6.106;2022-10-16T07:43:32;0.98;;;0.88;;
58697;SDS011;44475;53.206;-6.106;2022-10-16T07:45:59;2.22;;;1.30;;
58697;SDS011;44475;53.206;-6.106;2022-10-16T07:48:30;1.98;;;1.10;;
58697;SDS011;44475;53.206;-6.106;2022-10-16T07:51:01;1.30;;;1.10;;
58697;SDS011;44475;53.206;-6.106;2022-10-16T07:53:30;1.27;;;1.00;;
58697;SDS011;44475;53.206;-6.106;2022-10-16T07:56:01;1.67;;;1.00;;
58697;SDS011;44475;53.206;-6.106;2022-10-16T07:58:29;1.23;;;1.00;;
58697;SDS011;44475;53.206;-6.106;2022-10-16T08:00:56;1.60;;;1.05;;
58697;SDS011;44475;53.206;-6.106;2022-10-16T08:03:23;1.00;;;0.90;;
58697;SDS011;44475;53.206;-6.106;2022-10-16T08:05:50;1.50;;;1.10;;
58697;SDS011;44475;53.206;-6.106;2022-10-16T08:08:17;2.33;;;1.08;;
58697;SDS011;44475;53.206;-6.106;2022-10-16T08:10:45;2.05;;;1.10;;
58697;SDS011;44475;53.206;-6.106;2022-10-16T08:13:11;2.83;;;1.08;;
58697;SDS011;44475;53.206;-6.106;2022-10-16T08:15:40;1.15;;;1.00;;
58697;SDS011;44475;53.206;-6.106;2022-10-16T08:18:07;1.45;;;1.10;;
58697;SDS011;44475;53.206;-6.106;2022-10-16T08:20:34;1.85;;;1.00;;
58697;SDS011;44475;53.206;-6.106;2022-10-16T08:23:00;1.98;;;0.98;;
58697;SDS011;44475;53.206;-6.106;2022-10-16T08:25:27;1.17;;;0.90;;
58697;SDS011;44475;53.206;-6.106;2022-10-16T08:27:54;1.80;;;1.02;;
58697;SDS011;44475;53.206;-6.106;2022-10-16T08:30:22;2.20;;;1.10;;
58697;SDS011;44475;53.206;-6.106;2022-10-16T08:32:49;1.65;;;1.02;;
58697;SDS011;44475;53.206;-6.106;2022-10-16T08:35:15;1.35;;;1.08;;
58697;SDS011;44475;53.206;-6.106;2022-10-16T08:37:42;22.35;;;2.30;;
58697;SDS011;44475;53.206;-6.106;2022-10-16T08:40:20;11.60;;;1.50;;
58697;SDS011;44475;53.206;-6.106;2022-10-16T08:50:52;55.45;;;8.98;;
58697;SDS011;44475;53.206;-6.106;2022-10-16T08:53:20;66.57;;;7.70;;
58697;SDS011;44475;53.206;-6.106;2022-10-16T08:55:52;51.42;;;6.10;;
58697;SDS011;44475;53.206;-6.106;2022-10-16T08:58:20;37.38;;;5.05;;
58697;SDS011;44475;53.206;-6.106;2022-10-16T09:00:49;23.95;;;4.07;;
58697;SDS011;44475;53.206;-6.106;2022-10-16T09:23:25;19.92;;;3.20;;
58697;SDS011;44475;53.206;-6.106;2022-10-16T09:25:55;16.40;;;2.90;;
58697;SDS011;44475;53.206;-6.106;2022-10-16T09:28:23;17.58;;;2.78;;
58697;SDS011;44475;53.206;-6.106;2022-10-16T09:30:50;9.10;;;2.50;;
58697;SDS011;44475;53.206;-6.106;2022-10-16T09:33:20;13.82;;;2.50;;
58697;SDS011;44475;53.206;-6.106;2022-10-16T09:35:54;11.95;;;2.38;;
58697;SDS011;44475;53.206;-6.106;2022-10-16T09:38:30;13.93;;;2.40;;
58697;SDS011;44475;53.206;-6.106;2022-10-16T09:40:58;9.98;;;2.60;;
58697;SDS011;44475;53.206;-6.106;2022-10-16T09:46:03;12.02;;;2.50;;
58697;SDS011;44475;53.206;-6.106;2022-10-16T09:48:39;14.35;;;2.40;;
58697;SDS011;44475;53.206;-6.106;2022-10-16T09:51:23;12.93;;;2.50;;
58697;SDS011;44475;53.206;-6.106;2022-10-16T09:53:53;10.63;;;2.50;;
58697;SDS011;44475;53.206;-6.106;2022-10-16T09:56:31;17.10;;;3.90;;
58697;SDS011;44475;53.206;-6.106;2022-10-16T09:59:00;9.88;;;2.20;;
58697;SDS011;44475;53.206;-6.106;2022-10-16T10:01:52;8.90;;;2.60;;
58697;SDS011;44475;53.206;-6.106;2022-10-16T10:04:20;13.68;;;2.72;;
58697;SDS011;44475;53.206;-6.106;2022-10-16T10:06:55;11.65;;;2.45;;
58697;SDS011;44475;53.206;-6.106;2022-10-16T10:09:23;8.90;;;2.28;;
58697;SDS011;44475;53.206;-6.106;2022-10-16T10:11:54;10.38;;;2.58;;
58697;SDS011;44475;53.206;-6.106;2022-10-16T10:16:48;10.20;;;2.10;;
58697;SDS011;44475;53.206;-6.106;2022-10-16T10:19:22;8.77;;;2.10;;
58697;SDS011;44475;53.206;-6.106;2022-10-16T10:21:49;15.95;;;2.30;;
58697;SDS011;44475;53.206;-6.106;2022-10-16T10:24:17;17.60;;;3.08;;
58697;SDS011;44475;53.206;-6.106;2022-10-16T10:26:48;25.02;;;2.72;;
58697;SDS011;44475;53.206;-6.106;2022-10-16T10:31:50;14.48;;;2.30;;
58697;SDS011;44475;53.206;-6.106;2022-10-16T10:40:23;10.45;;;2.88;;
58697;SDS011;44475;53.206;-6.106;2022-10-16T10:43:03;10.05;;;2.20;;
58697;SDS011;44475;53.206;-6.106;2022-10-16T10:46:03;10.67;;;2.20;;
58697;SDS011;44475;53.206;-6.106;2022-10-16T10:51:13;7.97;;;2.10;;
58697;SDS011;44475;53.206;-6.106;2022-10-16T10:56:46;9.73;;;2.28;;
58697;SDS011;44475;53.206;-6.106;2022-10-16T10:59:37;10.27;;;2.47;;
58697;SDS011;44475;53.206;-6.106;2022-10-16T11:08:06;10.73;;;1.90;;
58697;SDS011;44475;53.206;-6.106;2022-10-16T11:10:45;6.82;;;1.90;;
58697;SDS011;44475;53.206;-6.106;2022-10-16T11:15:51;7.47;;;1.90;;
58697;SDS011;44475;53.206;-6.106;2022-10-16T11:18:27;8.50;;;2.00;;
58697;SDS011;44475;53.206;-6.106;2022-10-16T11:21:07;5.68;;;2.00;;
58697;SDS011;44475;53.206;-6.106;2022-10-16T11:23:46;6.00;;;2.25;;
58697;SDS011;44475;53.206;-6.106;2022-10-16T11:26:26;6.30;;;1.90;;
58697;SDS011;44475;53.206;-6.106;2022-10-16T11:28:56;7.28;;;1.80;;
58697;SDS011;44475;53.206;-6.106;2022-10-16T11:33:57;4.60;;;1.60;;
58697;SDS011;44475;53.206;-6.106;2022-10-16T11:36:55;4.18;;;1.80;;
58697;SDS011;44475;53.206;-6.106;2022-10-16T11:39:42;9.43;;;2.03;;
58697;SDS011;44475;53.206;-6.106;2022-10-16T11:50:23;8.60;;;1.85;;
58697;SDS011;44475;53.206;-6.106;2022-10-16T11:58:05;3.97;;;1.90;;
58697;SDS011;44475;53.206;-6.106;2022-10-16T12:09:25;6.03;;;1.98;;
58697;SDS011;44475;53.206;-6.106;2022-10-16T12:14:59;5.82;;;1.75;;
58697;SDS011;44475;53.206;-6.106;2022-10-16T12:17:43;5.18;;;1.65;;
58697;SDS011;44475;53.206;-6.106;2022-10-16T12:28:06;4.45;;;1.60;;
58697;SDS011;44475;53.206;-6.106;2022-10-16T12:31:00;4.70;;;1.67;;
58697;SDS011;44475;53.206;-6.106;2022-10-16T12:33:41;5.15;;;1.70;;
58697;SDS011;44475;53.206;-6.106;2022-10-16T12:36:40;4.93;;;1.75;;
58697;SDS011;44475;53.206;-6.106;2022-10-16T12:39:16;3.05;;;1.70;;
58697;SDS011;44475;53.206;-6.106;2022-10-16T12:41:47;4.72;;;1.70;;
58697;SDS011;44475;53.206;-6.106;2022-10-16T12:44:25;3.10;;;1.60;;
58697;SDS011;44475;53.206;-6.106;2022-10-16T12:46:56;3.53;;;1.50;;
58697;SDS011;44475;53.206;-6.106;2022-10-16T12:49:30;5.55;;;1.60;;
58697;SDS011;44475;53.206;-6.106;2022-10-16T12:52:00;3.70;;;1.60;;
58697;SDS011;44475;53.206;-6.106;2022-10-16T13:11:02;4.63;;;1.90;;
58697;SDS011;44475;53.206;-6.106;2022-10-16T13:16:49;3.90;;;1.80;;
58697;SDS011;44475;53.206;-6.106;2022-10-16T13:29:54;4.28;;;1.60;;
58697;SDS011;44475;53.206;-6.106;2022-10-16T13:32:56;3.05;;;1.70;;
58697;SDS011;44475;53.206;-6.106;2022-10-16T13:35:46;3.97;;;2.08;;
58697;SDS011;44475;53.206;-6.106;2022-10-16T13:38:19;3.25;;;1.77;;
58697;SDS011;44475;53.206;-6.106;2022-10-16T13:40:55;3.53;;;1.80;;
58697;SDS011;44475;53.206;-6.106;2022-10-16T13:43:32;2.75;;;1.58;;
58697;SDS011;44475;53.206;-6.106;2022-10-16T13:48:33;3.90;;;1.60;;
58697;SDS011;44475;53.206;-6.106;2022-10-16T13:51:13;4.38;;;1.80;;
58697;SDS011;44475;53.206;-6.106;2022-10-16T13:53:41;4.20;;;1.75;;
58697;SDS011;44475;53.206;-6.106;2022-10-16T13:56:10;4.03;;;1.77;;
58697;SDS011;44475;53.206;-6.106;2022-10-16T13:58:38;4.30;;;1.90;;
58697;SDS011;44475;53.206;-6.106;2022-10-16T14:01:16;6.70;;;1.80;;
58697;SDS011;44475;53.206;-6.106;2022-10-16T14:03:49;9.75;;;2.10;;
58697;SDS011;44475;53.206;-6.106;2022-10-16T14:06:17;5.47;;;1.83;;
58697;SDS011;44475;53.206;-6.106;2022-10-16T14:08:49;4.22;;;1.70;;
58697;SDS011;44475;53.206;-6.106;2022-10-16T14:11:24;8.05;;;1.98;;
58697;SDS011;44475;53.206;-6.106;2022-10-16T14:13:51;5.72;;;2.10;;
58697;SDS011;44475;53.206;-6.106;2022-10-16T14:16:20;8.15;;;2.10;;
58697;SDS011;44475;53.206;-6.106;2022-10-16T14:19:01;9.25;;;1.90;;
58697;SDS011;44475;53.206;-6.106;2022-10-16T14:21:35;5.38;;;1.63;;
58697;SDS011;44475;53.206;-6.106;2022-10-16T14:24:12;8.15;;;2.05;;
58697;SDS011;44475;53.206;-6.106;2022-10-16T14:26:46;3.95;;;1.70;;
58697;SDS011;44475;53.206;-6.106;2022-10-16T14:29:15;8.32;;;1.90;;
58697;SDS011;44475;53.206;-6.106;2022-10-16T14:31:54;4.97;;;1.80;;
58697;SDS011;44475;53.206;-6.106;2022-10-16T14:36:54;7.60;;;1.73;;
58697;SDS011;44475;53.206;-6.106;2022-10-16T14:39:21;7.47;;;1.98;;
58697;SDS011;44475;53.206;-6.106;2022-10-16T14:41:54;4.05;;;1.80;;
58697;SDS011;44475;53.206;-6.106;2022-10-16T14:44:25;3.60;;;1.60;;
58697;SDS011;44475;53.206;-6.106;2022-10-16T14:46:54;6.10;;;1.95;;
58697;SDS011;44475;53.206;-6.106;2022-10-16T14:49:21;3.75;;;1.65;;
58697;SDS011;44475;53.206;-6.106;2022-10-16T14:51:51;4.97;;;1.73;;
58697;SDS011;44475;53.206;-6.106;2022-10-16T14:54:18;9.07;;;1.80;;
58697;SDS011;44475;53.206;-6.106;2022-10-16T14:56:49;5.53;;;1.90;;
58697;SDS011;44475;53.206;-6.106;2022-10-16T14:59:19;3.63;;;1.70;;
58697;SDS011;44475;53.206;-6.106;2022-10-16T15:02:00;5.18;;;1.50;;
58697;SDS011;44475;53.206;-6.106;2022-10-16T15:04:50;4.13;;;1.73;;
58697;SDS011;44475;53.206;-6.106;2022-10-16T15:07:16;7.40;;;1.90;;
58697;SDS011;44475;53.206;-6.106;2022-10-16T15:09:42;5.57;;;1.60;;
58697;SDS011;44475;53.206;-6.106;2022-10-16T15:12:09;7.38;;;1.70;;
58697;SDS011;44475;53.206;-6.106;2022-10-16T15:14:35;8.50;;;1.70;;
58697;SDS011;44475;53.206;-6.106;2022-10-16T15:17:02;5.78;;;2.08;;
58697;SDS011;44475;53.206;-6.106;2022-10-16T15:19:28;3.80;;;1.65;;
58697;SDS011;44475;53.206;-6.106;2022-10-16T15:21:55;4.07;;;1.73;;
58697;SDS011;44475;53.206;-6.106;2022-10-16T15:24:24;5.00;;;1.83;;
58697;SDS011;44475;53.206;-6.106;2022-10-16T15:26:50;4.30;;;1.65;;
58697;SDS011;44475;53.206;-6.106;2022-10-16T15:29:16;7.28;;;1.70;;
58697;SDS011;44475;53.206;-6.106;2022-10-16T15:31:43;3.90;;;1.67;;
58697;SDS011;44475;53.206;-6.106;2022-10-16T15:34:10;5.78;;;1.90;;
58697;SDS011;44475;53.206;-6.106;2022-10-16T15:36:38;4.97;;;1.73;;
58697;SDS011;44475;53.206;-6.106;2022-10-16T15:39:12;5.60;;;2.08;;
58697;SDS011;44475;53.206;-6.106;2022-10-16T15:41:43;2.97;;;1.58;;
58697;SDS011;44475;53.206;-6.106;2022-10-16T15:44:16;4.35;;;1.88;;
58697;SDS011;44475;53.206;-6.106;2022-10-16T15:46:43;5.60;;;2.10;;
58697;SDS011;44475;53.206;-6.106;2022-10-16T15:49:09;4.72;;;2.03;;
58697;SDS011;44475;53.206;-6.106;2022-10-16T15:51:40;7.18;;;2.28;;
58697;SDS011;44475;53.206;-6.106;2022-10-16T15:54:07;3.58;;;1.70;;
58697;SDS011;44475;53.206;-6.106;2022-10-16T15:56:33;4.68;;;1.80;;
58697;SDS011;44475;53.206;-6.106;2022-10-16T15:59:04;6.15;;;1.98;;
58697;SDS011;44475;53.206;-6.106;2022-10-16T16:01:33;7.00;;;1.98;;
58697;SDS011;44475;53.206;-6.106;2022-10-16T16:04:00;3.10;;;1.80;;
58697;SDS011;44475;53.206;-6.106;2022-10-16T16:06:27;6.53;;;1.98;;
58697;SDS011;44475;53.206;-6.106;2022-10-16T16:08:53;6.30;;;2.00;;
58697;SDS011;44475;53.206;-6.106;2022-10-16T16:11:20;5.30;;;2.28;;
58697;SDS011;44475;53.206;-6.106;2022-10-16T16:13:48;10.32;;;3.90;;
58697;SDS011;44475;53.206;-6.106;2022-10-16T16:16:15;8.77;;;2.33;;
58697;SDS011;44475;53.206;-6.106;2022-10-16T16:18:43;6.82;;;2.13;;
58697;SDS011;44475;53.206;-6.106;2022-10-16T16:21:10;5.40;;;2.30;;
58697;SDS011;44475;53.206;-6.106;2022-10-16T16:23:37;4.63;;;2.10;;
58697;SDS011;44475;53.206;-6.106;2022-10-16T16:26:11;4.95;;;2.30;;
58697;SDS011;44475;53.206;-6.106;2022-10-16T16:28:51;5.38;;;2.00;;
58697;SDS011;44475;53.206;-6.106;2022-10-16T16:31:19;6.72;;;2.20;;
58697;SDS011;44475;53.206;-6.106;2022-10-16T16:33:48;6.30;;;2.10;;
58697;SDS011;44475;53.206;-6.106;2022-10-16T16:36:16;5.72;;;2.38;;
58697;SDS011;44475;53.206;-6.106;2022-10-16T16:38:43;7.78;;;2.30;;
58697;SDS011;44475;53.206;-6.106;2022-10-16T16:41:20;8.32;;;3.45;;
58697;SDS011;44475;53.206;-6.106;2022-10-16T16:43:51;7.25;;;2.83;;
58697;SDS011;44475;53.206;-6.106;2022-10-16T16:46:18;6.72;;;2.42;;
58697;SDS011;44475;53.206;-6.106;2022-10-16T16:48:46;8.15;;;3.40;;
58697;SDS011;44475;53.206;-6.106;2022-10-16T16:51:15;6.95;;;3.10;;
58697;SDS011;44475;53.206;-6.106;2022-10-16T16:53:45;9.35;;;3.83;;
58697;SDS011;44475;53.206;-6.106;2022-10-16T16:56:13;5.57;;;2.33;;
58697;SDS011;44475;53.206;-6.106;2022-10-16T16:58:40;8.27;;;2.90;;
58697;SDS011;44475;53.206;-6.106;2022-10-16T17:01:07;5.45;;;2.45;;
58697;SDS011;44475;53.206;-6.106;2022-10-16T17:03:35;8.50;;;2.90;;
58697;SDS011;44475;53.206;-6.106;2022-10-16T17:06:03;7.95;;;2.80;;
58697;SDS011;44475;53.206;-6.106;2022-10-16T17:08:31;7.65;;;3.33;;
58697;SDS011;44475;53.206;-6.106;2022-10-16T17:11:01;8.73;;;2.63;;
58697;SDS011;44475;53.206;-6.106;2022-10-16T17:13:30;6.80;;;2.50;;
58697;SDS011;44475;53.206;-6.106;2022-10-16T17:16:03;6.45;;;2.78;;
58697;SDS011;44475;53.206;-6.106;2022-10-16T17:18:30;9.57;;;2.60;;